Time;durP1;ratioP1;P1;durP2;ratioP2;P2;SDS_P1;SDS_P2;PMS_P1;PMS_P2;Temp;Humidity;BMP_temperature;BMP_pressure;BME280_temperature;BME280_humidity;BME280_pressure;Samples;Min_cycle;Max_cycle;Signal;HPM_P1;HPM_P2
2022/05/10 00:01:04;;;;;;;25.33;22.60;;;16.70;90.90;;;;;;5102079;28;20646;-67
2022/05/10 00:03:35;;;;;;;25.37;22.33;;;16.70;90.80;;;;;;5048032;28;20560;-67
2022/05/10 00:06:07;;;;;;;29.47;23.30;;;16.70;90.80;;;;;;5083498;28;20629;-67
2022/05/10 00:08:36;;;;;;;26.90;23.23;;;16.70;90.80;;;;;;5089489;28;20232;-67
2022/05/10 00:11:04;;;;;;;25.73;23.10;;;16.70;90.80;;;;;;5087980;28;20197;-67
2022/05/10 00:13:31;;;;;;;23.80;21.30;;;16.70;90.90;;;;;;5082588;28;20549;-67
2022/05/10 00:15:58;;;;;;;22.47;20.17;;;16.70;91.00;;;;;;5090410;28;20207;-68
2022/05/10 00:18:28;;;;;;;25.80;21.50;;;16.70;90.90;;;;;;5107795;28;20201;-67
2022/05/10 00:20:56;;;;;;;24.97;22.47;;;16.60;90.60;;;;;;5088899;28;20236;-67
2022/05/10 00:23:23;;;;;;;27.73;21.47;;;16.60;90.60;;;;;;5089335;28;20226;-67
2022/05/10 00:25:50;;;;;;;26.73;21.67;;;16.50;90.60;;;;;;5083515;28;20227;-67
2022/05/10 00:28:17;;;;;;;28.40;25.37;;;16.50;90.70;;;;;;5101649;28;20206;-68
2022/05/10 00:30:44;;;;;;;28.53;25.60;;;16.50;90.80;;;;;;5076186;28;20689;-68
2022/05/10 00:33:18;;;;;;;25.60;22.90;;;16.40;90.80;;;;;;5079262;28;20217;-68
2022/05/10 00:35:45;;;;;;;26.47;23.60;;;16.40;90.90;;;;;;5062292;28;20221;-68
2022/05/10 00:38:13;;;;;;;26.23;22.57;;;16.40;91.00;;;;;;5067643;28;20557;-68
2022/05/10 00:40:40;;;;;;;30.03;25.93;;;16.40;91.10;;;;;;5080533;28;20205;-68
2022/05/10 00:43:33;;;;;;;30.17;26.83;;;16.30;91.00;;;;;;5089768;28;20196;-68
2022/05/10 00:46:07;;;;;;;29.50;23.07;;;16.30;91.10;;;;;;5091391;28;20208;-67
2022/05/10 00:48:47;;;;;;;24.90;22.10;;;16.30;91.20;;;;;;5089659;28;20208;-67
2022/05/10 00:51:38;;;;;;;25.63;23.03;;;16.30;91.30;;;;;;5087714;28;20222;-67
2022/05/10 00:54:36;;;;;;;27.73;23.47;;;16.20;91.30;;;;;;5103611;28;20202;-67
2022/05/10 00:57:15;;;;;;;29.00;25.30;;;16.30;91.30;;;;;;5083729;28;20620;-68
2022/05/10 00:59:56;;;;;;;27.80;23.37;;;16.20;91.30;;;;;;5061000;28;20209;-68
2022/05/10 01:02:26;;;;;;;26.37;21.83;;;16.20;91.30;;;;;;5085049;28;20231;-68
2022/05/10 01:05:02;;;;;;;24.37;21.20;;;16.20;91.30;;;;;;5090872;28;20278;-68
2022/05/10 01:07:38;;;;;;;25.80;23.10;;;16.20;91.20;;;;;;5082818;28;20205;-68
2022/05/10 01:10:10;;;;;;;31.53;25.77;;;16.20;91.20;;;;;;5076692;28;20197;-68
2022/05/10 01:12:46;;;;;;;31.93;27.17;;;16.20;91.20;;;;;;5084084;28;20515;-68
2022/05/10 01:15:22;;;;;;;28.50;24.70;;;16.20;91.30;;;;;;5088295;28;20212;-68
2022/05/10 01:17:58;;;;;;;30.70;27.33;;;16.10;91.40;;;;;;5089392;28;20204;-68
2022/05/10 01:20:36;;;;;;;33.63;29.03;;;16.20;91.40;;;;;;5080805;28;20212;-68
2022/05/10 01:23:42;;;;;;;29.23;25.83;;;16.10;91.50;;;;;;5085602;28;20695;-69
2022/05/10 01:26:36;;;;;;;37.17;26.87;;;16.10;91.60;;;;;;5052087;28;20220;-69
2022/05/10 01:29:08;;;;;;;31.00;27.20;;;16.00;91.70;;;;;;5065996;28;20216;-69
2022/05/10 01:31:40;;;;;;;27.93;23.37;;;16.00;91.80;;;;;;5060586;28;20753;-69
2022/05/10 01:34:12;;;;;;;29.33;23.53;;;16.00;91.80;;;;;;5071219;28;20198;-69
2022/05/10 01:36:53;;;;;;;27.80;22.80;;;15.90;91.60;;;;;;5094803;28;20227;-69
2022/05/10 01:39:47;;;;;;;28.90;23.30;;;15.90;91.40;;;;;;5079077;28;20210;-69
2022/05/10 01:42:45;;;;;;;32.07;25.83;;;15.80;91.30;;;;;;5087348;28;20580;-69
2022/05/10 01:45:32;;;;;;;28.13;24.00;;;15.80;91.30;;;;;;5089533;28;20248;-69
2022/05/10 01:48:03;;;;;;;35.60;28.10;;;15.80;91.40;;;;;;5083763;28;20284;-69
2022/05/10 01:50:33;;;;;;;28.83;24.83;;;15.80;91.40;;;;;;5064792;28;20202;-69
2022/05/10 01:53:06;;;;;;;37.63;26.53;;;15.80;91.40;;;;;;5083134;28;20504;-69
2022/05/10 01:55:49;;;;;;;31.37;28.00;;;15.70;91.40;;;;;;5075919;28;20276;-69
2022/05/10 01:58:19;;;;;;;37.37;30.63;;;15.70;91.40;;;;;;5087003;28;20553;-71
2022/05/10 02:00:55;;;;;;;35.00;30.77;;;15.70;91.50;;;;;;5091417;28;20247;-69
2022/05/10 02:03:29;;;;;;;37.70;29.37;;;15.70;91.70;;;;;;5083267;28;20208;-69
2022/05/10 02:06:24;;;;;;;33.60;27.83;;;15.70;91.70;;;;;;5091682;28;20236;-69
2022/05/10 02:09:15;;;;;;;32.83;28.13;;;15.70;91.70;;;;;;5079502;28;20221;-69
2022/05/10 02:11:51;;;;;;;32.87;29.30;;;15.70;91.70;;;;;;5076248;28;20250;-69
2022/05/10 02:14:31;;;;;;;31.70;27.33;;;15.60;91.80;;;;;;5074637;28;20205;-69
2022/05/10 02:17:13;;;;;;;31.23;27.27;;;15.60;91.80;;;;;;5089843;28;20194;-69
2022/05/10 02:19:47;;;;;;;30.93;27.17;;;15.60;91.90;;;;;;5094775;28;20288;-69
2022/05/10 02:22:21;;;;;;;36.47;28.37;;;15.60;92.00;;;;;;5081623;28;20243;-69
2022/05/10 02:24:58;;;;;;;29.37;26.20;;;15.60;92.00;;;;;;5080660;28;20559;-69
2022/05/10 02:27:41;;;;;;;33.33;26.13;;;15.60;92.00;;;;;;5078372;28;20621;-69
2022/05/10 02:30:11;;;;;;;31.57;25.53;;;15.50;91.90;;;;;;5104848;28;20265;-69
2022/05/10 02:35:54;;;;;;;38.13;32.17;;;15.50;91.90;;;;;;5077237;28;20315;-69
2022/05/10 02:38:30;;;;;;;37.43;31.70;;;15.50;92.00;;;;;;5076311;28;20216;-69
2022/05/10 02:41:00;;;;;;;40.07;32.77;;;15.50;92.00;;;;;;5077668;28;20208;-69
2022/05/10 02:43:30;;;;;;;39.67;33.77;;;15.50;92.00;;;;;;5067309;28;20284;-69
2022/05/10 02:45:58;;;;;;;41.73;33.77;;;15.50;92.10;;;;;;5090399;28;20275;-69
2022/05/10 02:48:31;;;;;;;38.40;31.07;;;15.50;92.20;;;;;;5082477;28;20232;-69
2022/05/10 02:50:58;;;;;;;39.43;34.17;;;15.50;92.20;;;;;;5062793;28;20214;-69
2022/05/10 02:53:27;;;;;;;34.03;29.07;;;15.50;92.20;;;;;;5083757;28;20202;-69
2022/05/10 02:56:01;;;;;;;37.30;30.83;;;15.50;92.20;;;;;;5091566;28;20199;-69
2022/05/10 02:58:57;;;;;;;36.77;32.73;;;15.50;92.20;;;;;;5077742;28;20598;-69
2022/05/10 03:01:37;;;;;;;44.43;35.30;;;15.50;92.20;;;;;;5059879;28;20224;-69
2022/05/10 03:04:07;;;;;;;41.47;35.90;;;15.50;92.20;;;;;;5085220;28;20212;-69
2022/05/10 03:06:38;;;;;;;39.87;32.80;;;15.50;92.30;;;;;;5093391;28;20201;-69
2022/05/10 03:09:06;;;;;;;40.77;33.20;;;15.50;92.20;;;;;;5083379;28;20634;-69
2022/05/10 03:11:35;;;;;;;39.03;32.67;;;15.50;92.20;;;;;;5081907;28;20534;-68
2022/05/10 03:14:06;;;;;;;38.40;31.93;;;15.50;92.20;;;;;;5080251;28;20515;-68
2022/05/10 03:16:34;;;;;;;35.87;31.97;;;15.50;92.20;;;;;;5080174;28;20203;-68
2022/05/10 03:19:04;;;;;;;41.57;35.07;;;15.50;92.20;;;;;;5101462;28;20485;-68
2022/05/10 03:21:31;;;;;;;41.33;34.17;;;15.50;92.20;;;;;;5091446;28;20198;-68
2022/05/10 03:23:58;;;;;;;39.27;33.87;;;15.50;92.30;;;;;;5080189;28;20676;-68
2022/05/10 03:26:27;;;;;;;39.50;33.27;;;15.50;92.20;;;;;;5102182;28;20230;-69
2022/05/10 03:28:55;;;;;;;42.23;32.87;;;15.50;92.30;;;;;;5102190;28;20624;-69
2022/05/10 03:31:23;;;;;;;43.87;33.90;;;15.40;92.30;;;;;;5076357;28;20594;-69
2022/05/10 03:36:40;;;;;;;40.40;34.07;;;15.40;92.20;;;;;;5092864;28;20271;-69
2022/05/10 03:39:09;;;;;;;42.03;33.07;;;15.30;92.20;;;;;;5082565;28;20200;-69
2022/05/10 03:41:36;;;;;;;38.87;34.33;;;15.40;92.30;;;;;;5092571;28;20639;-69
2022/05/10 03:44:04;;;;;;;40.33;33.17;;;15.30;92.40;;;;;;5088411;28;20287;-69
2022/05/10 03:46:31;;;;;;;42.23;33.60;;;15.30;92.40;;;;;;5078627;28;20221;-69
2022/05/10 03:48:58;;;;;;;39.30;32.77;;;15.30;92.40;;;;;;5063570;28;20211;-69
2022/05/10 03:51:26;;;;;;;36.23;31.40;;;15.30;92.40;;;;;;5082528;28;20208;-69
2022/05/10 03:53:53;;;;;;;41.33;33.57;;;15.30;92.40;;;;;;5080776;28;20213;-69
2022/05/10 03:56:20;;;;;;;43.50;33.23;;;15.30;92.40;;;;;;5072464;28;20246;-69
2022/05/10 03:58:47;;;;;;;35.67;31.03;;;15.30;92.30;;;;;;5081555;28;20215;-69
2022/05/10 04:01:19;;;;;;;38.80;31.23;;;15.30;92.30;;;;;;5089103;28;20678;-69
2022/05/10 04:03:47;;;;;;;37.80;31.83;;;15.30;92.30;;;;;;5058150;28;20252;-69
2022/05/10 04:06:15;;;;;;;42.47;30.83;;;15.20;92.30;;;;;;5075685;28;20226;-69
2022/05/10 04:08:42;;;;;;;42.90;33.63;;;15.30;92.30;;;;;;5077536;28;20232;-69
2022/05/10 04:11:11;;;;;;;43.83;34.80;;;15.30;92.30;;;;;;5081592;28;20202;-69
2022/05/10 04:13:41;;;;;;;47.37;35.03;;;15.30;92.20;;;;;;5067282;28;20207;-69
2022/05/10 04:16:08;;;;;;;44.97;35.43;;;15.20;92.20;;;;;;5087025;28;20208;-69
2022/05/10 04:18:35;;;;;;;46.10;35.10;;;15.20;92.30;;;;;;5075217;28;20229;-69
2022/05/10 04:21:03;;;;;;;38.93;33.80;;;15.20;92.40;;;;;;5075342;28;20215;-69
2022/05/10 04:23:30;;;;;;;39.17;33.57;;;15.20;92.40;;;;;;5085377;28;20307;-69
2022/05/10 04:26:12;;;;;;;42.37;34.00;;;15.30;92.50;;;;;;5086125;28;20544;-69
2022/05/10 04:28:40;;;;;;;39.37;33.57;;;15.30;92.40;;;;;;5093469;28;20200;-69
2022/05/10 04:31:07;;;;;;;43.77;35.37;;;15.30;92.40;;;;;;5099777;28;20210;-69
2022/05/10 04:33:35;;;;;;;40.50;34.77;;;15.30;92.80;;;;;;5093474;28;20201;-69
2022/05/10 04:36:02;;;;;;;40.10;34.00;;;15.40;92.50;;;;;;5086031;28;20212;-69
2022/05/10 04:38:29;;;;;;;41.33;35.70;;;15.40;92.50;;;;;;5093087;28;20205;-69
2022/05/10 04:43:42;;;;;;;38.87;34.33;;;15.60;92.50;;;;;;5078238;28;20619;-69
2022/05/10 04:46:10;;;;;;;46.10;34.77;;;15.60;92.50;;;;;;5072530;28;20669;-69
2022/05/10 04:48:37;;;;;;;42.83;34.37;;;15.70;92.60;;;;;;5077337;28;20528;-69
2022/05/10 04:51:06;;;;;;;40.57;34.20;;;15.70;92.50;;;;;;5082291;28;20198;-69
2022/05/10 04:53:33;;;;;;;46.07;36.53;;;15.70;92.60;;;;;;5077086;28;20225;-69
2022/05/10 04:56:02;;;;;;;40.10;34.77;;;15.80;92.60;;;;;;5083809;28;20205;-69
2022/05/10 04:58:29;;;;;;;40.67;34.77;;;15.80;92.50;;;;;;5084280;28;20207;-67
2022/05/10 05:01:01;;;;;;;38.43;34.33;;;15.90;92.50;;;;;;5067067;28;20205;-66
2022/05/10 05:03:29;;;;;;;43.77;33.73;;;16.00;92.50;;;;;;5090377;28;20224;-66
2022/05/10 05:05:55;;;;;;;40.17;33.93;;;16.10;92.50;;;;;;5065325;28;20597;-69
2022/05/10 05:08:23;;;;;;;39.03;32.63;;;16.20;92.40;;;;;;5078569;28;20209;-69
2022/05/10 05:10:50;;;;;;;37.90;33.77;;;16.30;92.40;;;;;;5099324;28;20194;-69
2022/05/10 05:13:17;;;;;;;40.20;32.83;;;16.40;92.30;;;;;;5074028;28;20216;-69
2022/05/10 05:15:44;;;;;;;43.23;32.60;;;16.40;92.20;;;;;;5075298;28;20201;-69
2022/05/10 05:18:12;;;;;;;40.50;34.13;;;16.50;92.20;;;;;;5090424;28;20210;-69
2022/05/10 05:20:41;;;;;;;36.87;33.03;;;16.70;92.10;;;;;;5075150;28;20209;-69
2022/05/10 05:23:10;;;;;;;40.93;33.63;;;16.80;92.00;;;;;;5089790;28;20726;-69
2022/05/10 05:25:41;;;;;;;41.37;33.73;;;17.10;91.80;;;;;;5080997;28;20592;-68
2022/05/10 05:28:10;;;;;;;36.80;32.87;;;17.30;91.20;;;;;;5078836;28;20212;-68
2022/05/10 05:30:39;;;;;;;36.83;30.93;;;17.50;90.80;;;;;;5083127;28;20311;-69
2022/05/10 05:33:06;;;;;;;39.87;33.03;;;17.60;90.50;;;;;;5065275;28;20218;-69
2022/05/10 05:35:34;;;;;;;36.17;32.37;;;17.70;90.30;;;;;;5088499;28;20204;-69
2022/05/10 05:38:02;;;;;;;36.17;31.27;;;17.80;90.10;;;;;;5087403;28;20287;-69
2022/05/10 05:40:30;;;;;;;39.13;32.13;;;17.90;90.10;;;;;;5089196;28;20202;-69
2022/05/10 05:42:57;;;;;;;36.43;31.07;;;17.90;90.10;;;;;;5069204;28;20222;-69
2022/05/10 05:45:25;;;;;;;33.87;30.33;;;18.00;90.00;;;;;;5104898;28;20239;-69
2022/05/10 05:47:55;;;;;;;39.27;31.27;;;18.00;90.00;;;;;;5071713;28;20498;-69
2022/05/10 05:50:24;;;;;;;39.00;30.73;;;18.10;90.00;;;;;;5058035;28;20216;-69
2022/05/10 05:52:57;;;;;;;33.33;29.80;;;18.20;90.00;;;;;;5085848;28;20647;-69
2022/05/10 05:55:27;;;;;;;38.23;29.93;;;18.30;89.70;;;;;;5065977;28;20714;-69
2022/05/10 05:57:54;;;;;;;35.77;28.73;;;18.40;89.50;;;;;;5079146;28;20661;-69
2022/05/10 06:00:24;;;;;;;32.53;29.10;;;18.50;88.90;;;;;;5057345;28;20453;-69
2022/05/10 06:02:53;;;;;;;33.07;29.63;;;18.50;88.30;;;;;;5081577;28;20613;-69
2022/05/10 06:05:23;;;;;;;32.10;28.57;;;18.60;88.40;;;;;;5074860;28;20215;-69
2022/05/10 06:07:51;;;;;;;32.57;28.40;;;18.70;88.20;;;;;;5061275;28;20558;-69
2022/05/10 06:10:18;;;;;;;35.53;30.43;;;18.80;88.50;;;;;;5090359;28;20210;-69
2022/05/10 06:12:45;;;;;;;33.07;28.90;;;18.90;88.20;;;;;;5083099;28;20612;-69
2022/05/10 06:15:15;;;;;;;35.17;28.87;;;19.00;87.90;;;;;;5089492;28;20678;-69
2022/05/10 06:17:45;;;;;;;30.60;27.47;;;19.10;87.60;;;;;;5082768;28;20215;-69
2022/05/10 06:20:20;;;;;;;33.77;28.17;;;19.10;87.40;;;;;;5089486;28;20205;-69
2022/05/10 06:22:48;;;;;;;33.70;27.63;;;19.30;87.10;;;;;;5069832;28;20235;-69
2022/05/10 06:25:18;;;;;;;33.27;26.97;;;19.40;87.20;;;;;;5073991;28;20667;-69
2022/05/10 06:27:50;;;;;;;30.80;27.33;;;19.50;86.80;;;;;;5059394;28;20221;-69
2022/05/10 06:30:19;;;;;;;31.83;26.63;;;19.60;86.60;;;;;;5073890;28;20207;-69
2022/05/10 06:32:47;;;;;;;29.43;26.07;;;19.70;86.50;;;;;;5063835;28;20750;-69
2022/05/10 06:35:15;;;;;;;30.93;25.40;;;19.80;86.10;;;;;;5089106;28;20301;-69
2022/05/10 06:40:32;;;;;;;28.00;25.13;;;20.10;85.10;;;;;;5058309;28;20224;-69
2022/05/10 06:43:01;;;;;;;29.23;25.50;;;20.20;84.80;;;;;;5079843;28;20196;-69
2022/05/10 06:45:31;;;;;;;25.93;23.13;;;20.30;85.00;;;;;;5074808;28;20306;-69
2022/05/10 06:47:59;;;;;;;27.47;24.77;;;20.50;84.50;;;;;;5084038;28;20207;-69
2022/05/10 06:50:26;;;;;;;27.50;24.60;;;20.60;83.50;;;;;;5089473;28;20558;-69
2022/05/10 06:52:57;;;;;;;29.40;24.93;;;20.80;83.20;;;;;;5066518;28;20212;-69
2022/05/10 06:55:30;;;;;;;28.07;25.23;;;20.80;82.60;;;;;;5071712;28;20639;-69
2022/05/10 06:57:58;;;;;;;26.60;23.50;;;21.00;82.40;;;;;;5071889;28;20214;-69
2022/05/10 07:00:35;;;;;;;28.27;25.40;;;21.10;82.10;;;;;;5074179;28;20394;-69
2022/05/10 07:03:16;;;;;;;29.40;26.30;;;21.30;81.80;;;;;;5084898;28;20209;-69
2022/05/10 07:05:44;;;;;;;29.90;26.17;;;21.40;81.50;;;;;;5089000;28;20218;-69
2022/05/10 07:08:12;;;;;;;32.03;27.77;;;21.60;81.50;;;;;;5082143;28;20575;-69
2022/05/10 07:10:40;;;;;;;29.33;26.23;;;21.70;80.00;;;;;;5087705;28;20200;-69
2022/05/10 07:13:07;;;;;;;30.83;27.53;;;21.80;79.20;;;;;;5075443;28;20299;-69
2022/05/10 07:15:35;;;;;;;31.00;27.13;;;21.90;79.60;;;;;;5077108;28;20729;-69
2022/05/10 07:18:02;;;;;;;30.50;27.43;;;22.00;79.40;;;;;;5075503;28;20323;-69
2022/05/10 07:20:29;;;;;;;31.27;28.03;;;22.20;79.00;;;;;;5075510;28;20228;-69
2022/05/10 07:22:56;;;;;;;36.17;27.83;;;22.30;78.60;;;;;;5076842;28;20466;-69
2022/05/10 07:25:25;;;;;;;33.37;27.10;;;22.40;78.40;;;;;;5107640;28;20303;-69
2022/05/10 07:27:53;;;;;;;29.60;26.47;;;22.60;78.20;;;;;;5071322;28;20237;-69
2022/05/10 07:30:21;;;;;;;30.13;26.93;;;22.70;77.50;;;;;;5078357;28;20224;-69
2022/05/10 07:32:49;;;;;;;29.23;26.20;;;22.80;76.50;;;;;;5082195;28;20274;-69
2022/05/10 07:36:23;;;;;;;29.27;26.13;;;22.90;76.40;;;;;;5078832;28;20190;-69
2022/05/10 07:38:05;;;;;;;27.57;24.70;;;23.00;75.80;;;;;;5088076;28;20205;-69
2022/05/10 07:40:32;;;;;;;31.80;26.27;;;23.10;75.00;;;;;;5061118;28;20642;-69
2022/05/10 07:43:02;;;;;;;27.50;24.60;;;23.20;74.90;;;;;;5097397;28;20210;-69
2022/05/10 07:45:31;;;;;;;31.30;24.87;;;23.30;74.10;;;;;;5090614;28;20205;-69
2022/05/10 07:47:58;;;;;;;29.77;25.03;;;23.40;73.90;;;;;;5068710;28;20620;-69
2022/05/10 07:50:25;;;;;;;27.10;24.33;;;23.60;73.70;;;;;;5061378;28;20251;-69
2022/05/10 07:52:52;;;;;;;29.10;24.33;;;23.70;73.50;;;;;;5079575;28;20212;-69
2022/05/10 07:55:20;;;;;;;29.10;26.27;;;23.80;72.50;;;;;;5105442;28;20513;-69
2022/05/10 07:57:47;;;;;;;27.63;24.37;;;23.90;70.80;;;;;;5106727;28;20634;-69
2022/05/10 08:00:14;;;;;;;28.10;25.13;;;23.90;71.10;;;;;;5080138;28;20213;-69
2022/05/10 08:02:43;;;;;;;29.43;26.53;;;24.00;71.60;;;;;;5079131;28;20271;-69
2022/05/10 08:05:18;;;;;;;27.17;24.40;;;24.10;71.70;;;;;;5103482;28;20231;-69
2022/05/10 08:07:45;;;;;;;37.80;26.00;;;24.20;71.30;;;;;;5094039;28;20212;-69
2022/05/10 08:10:12;;;;;;;28.03;25.27;;;24.30;70.50;;;;;;5087460;28;20209;-69
2022/05/10 08:12:39;;;;;;;28.57;25.77;;;24.40;70.50;;;;;;5090673;28;20205;-69
2022/05/10 08:15:08;;;;;;;47.60;25.17;;;24.50;68.90;;;;;;5081655;28;20709;-69
2022/05/10 08:17:36;;;;;;;26.83;24.20;;;24.60;68.60;;;;;;5080556;28;20193;-69
2022/05/10 08:20:05;;;;;;;28.13;25.30;;;24.60;68.80;;;;;;5074448;28;20198;-69
2022/05/10 08:22:32;;;;;;;30.20;25.83;;;24.70;69.00;;;;;;5088771;28;20757;-69
2022/05/10 08:25:00;;;;;;;30.53;27.47;;;24.80;69.10;;;;;;5084581;28;20542;-69
2022/05/10 08:27:28;;;;;;;29.83;26.80;;;24.80;68.20;;;;;;5075629;28;20221;-69
2022/05/10 08:29:55;;;;;;;32.10;28.83;;;24.90;67.20;;;;;;5074024;28;20205;-69
2022/05/10 08:32:22;;;;;;;30.50;27.33;;;24.90;67.70;;;;;;5073789;28;20232;-69
2022/05/10 08:34:49;;;;;;;33.77;29.00;;;24.80;67.30;;;;;;5076943;28;20197;-69
2022/05/10 08:37:16;;;;;;;31.10;27.83;;;24.80;68.40;;;;;;5075199;28;20216;-69
2022/05/10 08:39:43;;;;;;;31.67;28.30;;;24.80;68.50;;;;;;5087494;28;20618;-69
2022/05/10 08:42:23;;;;;;;27.53;24.77;;;24.80;68.60;;;;;;5059685;28;20201;-69
2022/05/10 08:44:58;;;;;;;30.33;26.77;;;24.90;69.00;;;;;;5082397;28;20251;-69
2022/05/10 08:47:26;;;;;;;30.60;27.20;;;25.10;68.10;;;;;;5083174;28;20441;-69
2022/05/10 08:49:58;;;;;;;29.33;26.27;;;25.20;66.70;;;;;;5084456;28;20194;-69
2022/05/10 08:52:47;;;;;;;29.27;26.13;;;25.30;66.20;;;;;;5108112;28;20227;-70
2022/05/10 08:55:23;;;;;;;30.63;27.43;;;25.50;66.70;;;;;;5065398;28;20536;-70
2022/05/10 08:58:09;;;;;;;28.87;25.83;;;25.60;66.60;;;;;;5081405;28;20369;-70
2022/05/10 09:00:45;;;;;;;29.23;26.20;;;25.80;66.60;;;;;;5100842;28;20212;-69
2022/05/10 09:03:50;;;;;;;28.53;25.50;;;25.90;66.40;;;;;;5076470;28;20623;-69
2022/05/10 09:06:59;;;;;;;29.77;25.83;;;26.10;65.00;;;;;;5095563;28;20230;-69
2022/05/10 09:09:29;;;;;;;28.10;25.20;;;26.30;63.50;;;;;;5070271;28;20724;-69
2022/05/10 09:12:22;;;;;;;30.50;27.20;;;26.30;63.10;;;;;;5090627;28;20197;-69
2022/05/10 09:14:57;;;;;;;30.63;26.23;;;26.30;62.60;;;;;;5087244;28;20208;-71
2022/05/10 09:17:29;;;;;;;22.97;20.50;;;26.30;62.80;;;;;;5047229;28;20214;-71
2022/05/10 09:19:57;;;;;;;24.70;22.30;;;26.30;62.70;;;;;;5086483;28;20284;-71
2022/05/10 09:23:03;;;;;;;23.90;21.60;;;26.40;62.50;;;;;;5075681;28;20590;-71
2022/05/10 09:25:39;;;;;;;24.53;20.97;;;26.50;62.50;;;;;;5085439;28;20232;-71
2022/05/10 09:28:29;;;;;;;24.20;21.60;;;26.70;61.60;;;;;;5071313;28;20258;-70
2022/05/10 09:34:47;;;;;;;21.43;19.13;;;26.80;58.50;;;;;;5012102;28;20217;-69
2022/05/10 09:37:18;;;;;;;24.87;22.33;;;26.80;58.10;;;;;;5077746;28;20242;-69
2022/05/10 09:39:55;;;;;;;25.43;22.47;;;26.80;57.80;;;;;;5079163;28;20213;-69
2022/05/10 09:42:36;;;;;;;24.03;20.50;;;26.70;60.10;;;;;;5093790;28;20542;-69
2022/05/10 09:45:15;;;;;;;18.70;16.63;;;26.80;60.40;;;;;;5084098;28;20286;-69
2022/05/10 09:48:08;;;;;;;21.73;16.73;;;26.90;57.60;;;;;;5086461;28;20553;-69
2022/05/10 09:50:46;;;;;;;18.67;14.70;;;27.00;56.60;;;;;;5089115;28;20241;-70
2022/05/10 09:53:20;;;;;;;16.60;14.90;;;27.10;57.60;;;;;;5080488;28;20189;-70
2022/05/10 09:56:03;;;;;;;16.33;14.40;;;27.20;55.70;;;;;;5074456;28;20207;-69
2022/05/10 09:58:41;;;;;;;16.97;15.27;;;27.20;55.90;;;;;;5091483;28;20202;-71
2022/05/10 10:01:11;;;;;;;17.60;15.67;;;27.20;56.50;;;;;;5072017;28;20295;-72
2022/05/10 10:03:42;;;;;;;17.93;15.73;;;27.20;56.90;;;;;;5091489;28;20237;-71
2022/05/10 10:06:18;;;;;;;18.47;15.10;;;27.30;54.60;;;;;;5072889;28;20564;-71
2022/05/10 10:08:57;;;;;;;15.27;13.00;;;27.30;55.10;;;;;;5065072;28;20211;-71
2022/05/10 10:11:28;;;;;;;15.00;13.37;;;27.30;53.60;;;;;;5082058;28;20234;-71
2022/05/10 10:14:27;;;;;;;16.40;12.20;;;27.30;53.80;;;;;;5100949;28;20260;-71
2022/05/10 10:16:55;;;;;;;18.07;13.10;;;27.40;55.00;;;;;;5081241;28;20219;-71
2022/05/10 10:19:22;;;;;;;13.20;10.20;;;27.50;55.20;;;;;;5072839;28;20276;-71
2022/05/10 10:21:50;;;;;;;10.33;9.27;;;27.60;54.90;;;;;;5072949;28;20201;-71
2022/05/10 10:24:34;;;;;;;14.90;11.60;;;27.80;54.30;;;;;;5051096;28;20216;-71
2022/05/10 10:27:08;;;;;;;12.93;11.60;;;27.90;54.10;;;;;;5084794;28;20225;-71
2022/05/10 10:29:55;;;;;;;16.90;11.57;;;28.00;52.20;;;;;;5075869;28;20193;-71
2022/05/10 10:32:29;;;;;;;14.03;10.27;;;28.10;52.30;;;;;;5096383;28;20646;-69
2022/05/10 10:35:15;;;;;;;11.70;10.70;;;28.10;51.20;;;;;;5089881;28;20290;-69
2022/05/10 10:37:54;;;;;;;11.40;10.00;;;28.10;52.40;;;;;;5095299;28;20206;-69
2022/05/10 10:40:33;;;;;;;16.27;14.57;;;28.10;52.10;;;;;;5072640;28;20212;-69
2022/05/10 10:43:03;;;;;;;13.03;11.63;;;28.20;52.30;;;;;;5087188;28;20226;-70
2022/05/10 10:45:39;;;;;;;12.70;8.23;;;28.20;52.20;;;;;;5086386;28;20673;-69
2022/05/10 10:48:25;;;;;;;13.07;7.73;;;28.10;52.40;;;;;;5079893;28;20580;-69
2022/05/10 10:50:54;;;;;;;12.40;10.27;;;28.20;51.90;;;;;;5083532;28;20224;-69
2022/05/10 10:53:24;;;;;;;10.40;7.13;;;28.30;51.00;;;;;;5042327;28;20218;-70
2022/05/10 10:55:51;;;;;;;10.73;8.23;;;28.40;51.60;;;;;;5091923;28;20222;-69
2022/05/10 10:58:34;;;;;;;11.07;8.87;;;28.50;50.70;;;;;;5099728;28;20211;-69
2022/05/10 11:01:22;;;;;;;10.90;7.83;;;28.60;49.60;;;;;;5077151;28;20475;-69
2022/05/10 11:04:12;;;;;;;10.27;9.27;;;28.70;51.30;;;;;;5057605;28;20221;-69
2022/05/10 11:06:52;;;;;;;11.23;9.97;;;28.80;50.40;;;;;;5094733;28;20543;-69
2022/05/10 11:09:47;;;;;;;13.63;9.47;;;28.80;50.00;;;;;;5069767;28;20208;-69
2022/05/10 11:12:29;;;;;;;11.67;8.60;;;28.80;49.40;;;;;;5082574;28;20201;-69
2022/05/10 11:15:05;;;;;;;10.90;9.83;;;28.80;50.50;;;;;;5085964;28;20738;-69
2022/05/10 11:17:57;;;;;;;11.57;9.57;;;28.90;47.80;;;;;;5081740;28;20283;-69
2022/05/10 11:20:54;;;;;;;9.23;8.07;;;28.80;47.90;;;;;;5057576;28;20221;-70
2022/05/10 11:23:49;;;;;;;10.47;8.13;;;28.80;49.20;;;;;;5083001;28;20260;-69
2022/05/10 11:26:23;;;;;;;11.33;8.47;;;28.80;47.90;;;;;;5076511;28;20216;-69
2022/05/10 11:28:56;;;;;;;9.67;7.40;;;28.80;46.70;;;;;;5087118;28;20197;-69
2022/05/10 11:31:46;;;;;;;9.30;8.07;;;28.70;46.70;;;;;;5100147;28;20692;-69
2022/05/10 11:34:16;;;;;;;9.23;7.23;;;28.70;48.10;;;;;;5076271;28;20205;-69
2022/05/10 11:36:48;;;;;;;9.03;6.43;;;28.60;47.60;;;;;;5086011;28;20219;-69
2022/05/10 11:39:27;;;;;;;8.43;6.47;;;28.60;48.50;;;;;;5076668;28;20262;-69
2022/05/10 11:42:21;;;;;;;7.53;6.13;;;28.80;49.20;;;;;;5088312;28;20217;-69
2022/05/10 11:45:21;;;;;;;9.23;8.13;;;28.80;48.70;;;;;;5072384;28;20272;-69
2022/05/10 11:48:08;;;;;;;8.70;7.80;;;28.90;48.50;;;;;;5063987;28;20247;-69
2022/05/10 11:51:38;;;;;;;11.57;8.57;;;29.10;47.90;;;;;;5090528;28;20213;-70
2022/05/10 11:54:40;;;;;;;8.63;7.47;;;29.10;46.40;;;;;;5056666;28;20221;-69
2022/05/10 11:57:18;;;;;;;8.00;7.20;;;29.10;48.60;;;;;;5054008;28;20440;-69
2022/05/10 11:59:46;;;;;;;12.37;7.73;;;29.10;48.20;;;;;;5058238;28;20661;-70
2022/05/10 12:02:28;;;;;;;14.67;8.47;;;29.10;47.10;;;;;;5089037;28;20233;-69
2022/05/10 12:05:10;;;;;;;14.27;8.67;;;29.00;48.50;;;;;;5108143;28;20201;-69
2022/05/10 12:07:54;;;;;;;8.90;7.00;;;29.00;48.30;;;;;;5088368;28;20217;-70
2022/05/10 12:10:33;;;;;;;10.27;7.20;;;28.90;47.60;;;;;;5078456;28;20200;-69
2022/05/10 12:13:02;;;;;;;7.77;7.00;;;28.90;47.10;;;;;;5084500;28;20227;-69
2022/05/10 12:21:38;;;;;;;7.40;6.70;;;28.60;47.30;;;;;;5088718;28;20204;-69
2022/05/10 12:24:19;;;;;;;9.73;6.47;;;28.60;49.00;;;;;;5067486;28;20251;-70
2022/05/10 12:26:59;;;;;;;6.47;5.83;;;28.60;48.50;;;;;;5080504;28;20665;-69
2022/05/10 12:29:32;;;;;;;8.67;6.40;;;28.70;47.80;;;;;;5088399;28;20232;-69
2022/05/10 12:32:10;;;;;;;8.70;6.50;;;28.70;46.20;;;;;;5078775;28;20196;-69
2022/05/10 12:34:48;;;;;;;12.53;7.10;;;28.60;46.80;;;;;;5089360;28;20757;-69
2022/05/10 12:37:27;;;;;;;7.53;6.83;;;28.50;47.00;;;;;;5091356;28;20215;-69
2022/05/10 12:40:31;;;;;;;9.60;6.97;;;28.50;47.40;;;;;;5083107;28;20216;-69
2022/05/10 12:43:06;;;;;;;7.80;7.07;;;28.40;46.50;;;;;;5070777;28;20652;-69
2022/05/10 12:46:23;;;;;;;10.03;7.00;;;28.30;46.10;;;;;;5074912;28;20294;-69
2022/05/10 12:49:16;;;;;;;8.40;6.57;;;28.30;45.90;;;;;;5033221;28;21013;-69
2022/05/10 12:52:22;;;;;;;10.30;7.47;;;28.40;46.60;;;;;;5017270;28;20228;-69
2022/05/10 12:55:03;;;;;;;8.50;6.13;;;28.40;46.70;;;;;;4985064;28;20278;-69
2022/05/10 12:57:31;;;;;;;7.47;6.67;;;28.30;46.80;;;;;;4979326;28;20572;-69
2022/05/10 13:00:14;;;;;;;10.77;6.57;;;28.30;47.90;;;;;;5036067;28;20227;-69
2022/05/10 13:03:06;;;;;;;10.67;7.47;;;28.30;47.40;;;;;;5073803;28;20290;-70
2022/05/10 13:06:06;;;;;;;9.53;7.10;;;28.30;47.40;;;;;;5089518;28;20395;-70
2022/05/10 13:08:56;;;;;;;9.17;6.67;;;28.40;47.70;;;;;;5084438;28;20230;-69
2022/05/10 13:11:45;;;;;;;7.53;6.83;;;28.60;48.10;;;;;;5090771;28;20236;-69
2022/05/10 13:14:14;;;;;;;9.30;5.93;;;28.70;47.00;;;;;;5083233;28;20238;-69
2022/05/10 13:16:50;;;;;;;7.60;6.10;;;28.70;48.10;;;;;;5083089;28;20220;-69
2022/05/10 13:19:19;;;;;;;9.70;5.80;;;28.70;47.00;;;;;;5085495;28;20199;-70
2022/05/10 13:21:53;;;;;;;7.43;5.77;;;28.70;46.60;;;;;;5096632;28;20201;-70
2022/05/10 13:24:20;;;;;;;11.43;6.23;;;28.80;46.80;;;;;;5078962;28;20200;-69
2022/05/10 13:26:57;;;;;;;9.13;5.93;;;28.80;45.60;;;;;;5077923;28;20190;-69
2022/05/10 13:29:48;;;;;;;7.57;6.10;;;28.80;46.90;;;;;;5084237;28;20222;-68